Terminal Aerodrome Forecast
Issued by NWS Tuscon, AZ

Home | Current Version | Previous Version | Text Only | Print | Product List | Glossary On
Versions: 1 2 3 4 5 6 7 8 9 10 11 12 13
106
FTUS45 KTWC 112338
TAFDUG
TAF
KDUG 112338Z 1200/1224 35006KT P6SM SKC
     FM120400 02009KT P6SM SKC
     FM121000 VRB03KT P6SM SKC
     FM121900 13008KT P6SM SKC=

USA.gov is the U.S. government's official web portal to all federal, state and local government web resources and services.